sensor_id;sensor_type;location;lat;lon;timestamp;P1;durP1;ratioP1;P2;durP2;ratioP2
30505;SDS011;17292;51.600;4.994;2023-04-03T00:01:32;1.13;;;1.10;;
30505;SDS011;17292;51.600;4.994;2023-04-03T00:03:58;1.55;;;1.42;;
30505;SDS011;17292;51.600;4.994;2023-04-03T00:06:25;1.40;;;1.30;;
30505;SDS011;17292;51.600;4.994;2023-04-03T00:08:51;1.20;;;1.20;;
30505;SDS011;17292;51.600;4.994;2023-04-03T00:11:18;1.38;;;1.27;;
30505;SDS011;17292;51.600;4.994;2023-04-03T00:13:45;1.20;;;1.10;;
30505;SDS011;17292;51.600;4.994;2023-04-03T00:16:12;1.40;;;1.30;;
30505;SDS011;17292;51.600;4.994;2023-04-03T00:18:39;1.30;;;1.20;;
30505;SDS011;17292;51.600;4.994;2023-04-03T00:21:05;1.83;;;1.20;;
30505;SDS011;17292;51.600;4.994;2023-04-03T00:23:32;1.40;;;1.30;;
30505;SDS011;17292;51.600;4.994;2023-04-03T00:25:58;1.45;;;1.30;;
30505;SDS011;17292;51.600;4.994;2023-04-03T00:28:24;1.08;;;1.08;;
30505;SDS011;17292;51.600;4.994;2023-04-03T00:30:52;1.33;;;1.23;;
30505;SDS011;17292;51.600;4.994;2023-04-03T00:33:18;1.48;;;1.27;;
30505;SDS011;17292;51.600;4.994;2023-04-03T00:35:48;1.52;;;1.40;;
30505;SDS011;17292;51.600;4.994;2023-04-03T00:38:15;1.40;;;1.30;;
30505;SDS011;17292;51.600;4.994;2023-04-03T00:40:42;1.40;;;1.30;;
30505;SDS011;17292;51.600;4.994;2023-04-03T00:43:16;0.90;;;0.90;;
30505;SDS011;17292;51.600;4.994;2023-04-03T00:45:43;1.20;;;1.10;;
30505;SDS011;17292;51.600;4.994;2023-04-03T00:48:15;1.33;;;1.23;;
30505;SDS011;17292;51.600;4.994;2023-04-03T00:50:42;1.23;;;1.20;;
30505;SDS011;17292;51.600;4.994;2023-04-03T00:53:10;1.20;;;1.10;;
30505;SDS011;17292;51.600;4.994;2023-04-03T00:55:37;1.77;;;1.35;;
30505;SDS011;17292;51.600;4.994;2023-04-03T00:58:03;0.80;;;0.80;;
30505;SDS011;17292;51.600;4.994;2023-04-03T01:00:32;0.88;;;0.88;;
30505;SDS011;17292;51.600;4.994;2023-04-03T01:02:58;1.40;;;1.27;;
30505;SDS011;17292;51.600;4.994;2023-04-03T01:05:25;1.10;;;1.10;;
30505;SDS011;17292;51.600;4.994;2023-04-03T01:07:51;1.05;;;0.95;;
30505;SDS011;17292;51.600;4.994;2023-04-03T01:10:18;0.95;;;0.95;;
30505;SDS011;17292;51.600;4.994;2023-04-03T01:12:46;1.40;;;1.30;;
30505;SDS011;17292;51.600;4.994;2023-04-03T01:25:45;1.33;;;1.20;;
30505;SDS011;17292;51.600;4.994;2023-04-03T01:28:15;1.65;;;1.30;;
30505;SDS011;17292;51.600;4.994;2023-04-03T01:30:47;1.35;;;1.25;;
30505;SDS011;17292;51.600;4.994;2023-04-03T01:33:15;1.10;;;1.00;;
30505;SDS011;17292;51.600;4.994;2023-04-03T01:35:41;1.25;;;1.23;;
30505;SDS011;17292;51.600;4.994;2023-04-03T01:38:07;1.15;;;1.10;;
30505;SDS011;17292;51.600;4.994;2023-04-03T01:40:33;1.10;;;1.10;;
30505;SDS011;17292;51.600;4.994;2023-04-03T01:42:59;1.27;;;1.17;;
30505;SDS011;17292;51.600;4.994;2023-04-03T01:45:25;1.15;;;1.15;;
30505;SDS011;17292;51.600;4.994;2023-04-03T01:47:52;0.98;;;0.98;;
30505;SDS011;17292;51.600;4.994;2023-04-03T01:50:18;1.13;;;1.02;;
30505;SDS011;17292;51.600;4.994;2023-04-03T01:52:44;1.85;;;1.05;;
30505;SDS011;17292;51.600;4.994;2023-04-03T01:55:10;1.08;;;1.08;;
30505;SDS011;17292;51.600;4.994;2023-04-03T01:57:36;0.90;;;0.90;;
30505;SDS011;17292;51.600;4.994;2023-04-03T02:00:02;1.10;;;1.10;;
30505;SDS011;17292;51.600;4.994;2023-04-03T02:02:29;1.40;;;1.30;;
30505;SDS011;17292;51.600;4.994;2023-04-03T02:04:55;1.00;;;1.00;;
30505;SDS011;17292;51.600;4.994;2023-04-03T02:07:21;1.10;;;1.00;;
30505;SDS011;17292;51.600;4.994;2023-04-03T02:09:47;0.93;;;0.93;;
30505;SDS011;17292;51.600;4.994;2023-04-03T02:12:13;0.95;;;0.95;;
30505;SDS011;17292;51.600;4.994;2023-04-03T02:14:39;1.10;;;1.10;;
30505;SDS011;17292;51.600;4.994;2023-04-03T02:17:05;1.42;;;1.25;;
30505;SDS011;17292;51.600;4.994;2023-04-03T02:19:34;1.13;;;1.00;;
30505;SDS011;17292;51.600;4.994;2023-04-03T02:22:01;1.20;;;1.10;;
30505;SDS011;17292;51.600;4.994;2023-04-03T02:24:27;1.33;;;1.23;;
30505;SDS011;17292;51.600;4.994;2023-04-03T02:26:53;1.17;;;1.10;;
30505;SDS011;17292;51.600;4.994;2023-04-03T02:29:19;1.20;;;1.10;;
30505;SDS011;17292;51.600;4.994;2023-04-03T02:31:45;1.05;;;1.05;;
30505;SDS011;17292;51.600;4.994;2023-04-03T02:34:12;1.33;;;1.23;;
30505;SDS011;17292;51.600;4.994;2023-04-03T02:36:38;1.02;;;1.02;;
30505;SDS011;17292;51.600;4.994;2023-04-03T02:39:04;1.02;;;0.98;;
30505;SDS011;17292;51.600;4.994;2023-04-03T02:41:30;1.13;;;1.02;;
30505;SDS011;17292;51.600;4.994;2023-04-03T02:44:03;1.05;;;0.95;;
30505;SDS011;17292;51.600;4.994;2023-04-03T02:46:29;1.00;;;1.00;;
30505;SDS011;17292;51.600;4.994;2023-04-03T02:48:56;1.10;;;1.10;;
30505;SDS011;17292;51.600;4.994;2023-04-03T02:51:22;0.98;;;0.98;;
30505;SDS011;17292;51.600;4.994;2023-04-03T02:53:49;1.00;;;1.00;;
30505;SDS011;17292;51.600;4.994;2023-04-03T02:56:15;1.13;;;1.13;;
30505;SDS011;17292;51.600;4.994;2023-04-03T02:58:43;1.38;;;1.27;;
30505;SDS011;17292;51.600;4.994;2023-04-03T03:01:09;1.00;;;1.00;;
30505;SDS011;17292;51.600;4.994;2023-04-03T03:03:35;1.30;;;1.20;;
30505;SDS011;17292;51.600;4.994;2023-04-03T03:06:06;1.20;;;1.10;;
30505;SDS011;17292;51.600;4.994;2023-04-03T03:08:32;0.90;;;0.90;;
30505;SDS011;17292;51.600;4.994;2023-04-03T03:10:58;1.20;;;1.10;;
30505;SDS011;17292;51.600;4.994;2023-04-03T03:13:25;1.35;;;1.00;;
30505;SDS011;17292;51.600;4.994;2023-04-03T03:15:51;1.58;;;1.40;;
30505;SDS011;17292;51.600;4.994;2023-04-03T03:18:17;1.42;;;1.33;;
30505;SDS011;17292;51.600;4.994;2023-04-03T03:20:43;0.98;;;0.98;;
30505;SDS011;17292;51.600;4.994;2023-04-03T03:23:10;1.30;;;1.20;;
30505;SDS011;17292;51.600;4.994;2023-04-03T03:25:39;1.17;;;0.98;;
30505;SDS011;17292;51.600;4.994;2023-04-03T03:28:06;1.20;;;1.10;;
30505;SDS011;17292;51.600;4.994;2023-04-03T03:30:33;1.13;;;1.02;;
30505;SDS011;17292;51.600;4.994;2023-04-03T03:33:00;1.20;;;1.10;;
30505;SDS011;17292;51.600;4.994;2023-04-03T03:35:26;1.25;;;1.15;;
30505;SDS011;17292;51.600;4.994;2023-04-03T03:37:52;1.25;;;1.15;;
30505;SDS011;17292;51.600;4.994;2023-04-03T03:40:18;1.05;;;1.05;;
30505;SDS011;17292;51.600;4.994;2023-04-03T03:42:45;0.95;;;0.90;;
30505;SDS011;17292;51.600;4.994;2023-04-03T03:45:11;1.10;;;1.10;;
30505;SDS011;17292;51.600;4.994;2023-04-03T03:47:37;0.90;;;0.90;;
30505;SDS011;17292;51.600;4.994;2023-04-03T03:50:03;0.98;;;0.98;;
30505;SDS011;17292;51.600;4.994;2023-04-03T03:52:30;1.42;;;1.15;;
30505;SDS011;17292;51.600;4.994;2023-04-03T03:54:56;1.25;;;1.15;;
30505;SDS011;17292;51.600;4.994;2023-04-03T03:57:22;1.00;;;1.00;;
30505;SDS011;17292;51.600;4.994;2023-04-03T03:59:48;1.17;;;1.08;;
30505;SDS011;17292;51.600;4.994;2023-04-03T04:02:16;1.40;;;1.30;;
30505;SDS011;17292;51.600;4.994;2023-04-03T04:04:42;1.05;;;1.00;;
30505;SDS011;17292;51.600;4.994;2023-04-03T04:07:08;0.65;;;0.65;;
30505;SDS011;17292;51.600;4.994;2023-04-03T04:09:34;1.40;;;1.30;;
30505;SDS011;17292;51.600;4.994;2023-04-03T04:12:01;1.17;;;1.17;;
30505;SDS011;17292;51.600;4.994;2023-04-03T04:14:27;0.95;;;0.95;;
30505;SDS011;17292;51.600;4.994;2023-04-03T04:16:53;1.52;;;1.42;;
30505;SDS011;17292;51.600;4.994;2023-04-03T04:19:19;1.08;;;1.08;;
30505;SDS011;17292;51.600;4.994;2023-04-03T04:21:45;1.63;;;1.25;;
30505;SDS011;17292;51.600;4.994;2023-04-03T04:24:11;1.10;;;1.10;;
30505;SDS011;17292;51.600;4.994;2023-04-03T04:26:37;1.00;;;1.00;;
30505;SDS011;17292;51.600;4.994;2023-04-03T04:29:03;1.05;;;0.95;;
30505;SDS011;17292;51.600;4.994;2023-04-03T04:31:29;1.30;;;1.20;;
30505;SDS011;17292;51.600;4.994;2023-04-03T04:33:56;1.20;;;1.20;;
30505;SDS011;17292;51.600;4.994;2023-04-03T04:36:22;1.50;;;1.40;;
30505;SDS011;17292;51.600;4.994;2023-04-03T04:38:48;3.15;;;1.35;;
30505;SDS011;17292;51.600;4.994;2023-04-03T04:41:17;1.20;;;1.10;;
30505;SDS011;17292;51.600;4.994;2023-04-03T04:43:46;1.45;;;1.35;;
30505;SDS011;17292;51.600;4.994;2023-04-03T04:46:12;1.10;;;1.10;;
30505;SDS011;17292;51.600;4.994;2023-04-03T04:48:38;1.00;;;1.00;;
30505;SDS011;17292;51.600;4.994;2023-04-03T04:51:05;1.23;;;1.00;;
30505;SDS011;17292;51.600;4.994;2023-04-03T04:53:31;1.05;;;1.02;;
30505;SDS011;17292;51.600;4.994;2023-04-03T04:55:58;1.25;;;1.20;;
30505;SDS011;17292;51.600;4.994;2023-04-03T04:58:24;1.88;;;1.10;;
30505;SDS011;17292;51.600;4.994;2023-04-03T05:00:58;3.83;;;1.40;;
30505;SDS011;17292;51.600;4.994;2023-04-03T05:03:24;2.30;;;1.30;;
30505;SDS011;17292;51.600;4.994;2023-04-03T05:05:50;2.00;;;1.30;;
30505;SDS011;17292;51.600;4.994;2023-04-03T05:08:16;10.57;;;2.03;;
30505;SDS011;17292;51.600;4.994;2023-04-03T05:10:44;1.50;;;1.05;;
30505;SDS011;17292;51.600;4.994;2023-04-03T05:13:10;1.80;;;1.38;;
30505;SDS011;17292;51.600;4.994;2023-04-03T05:15:36;3.70;;;0.90;;
30505;SDS011;17292;51.600;4.994;2023-04-03T05:18:02;84.80;;;7.95;;
30505;SDS011;17292;51.600;4.994;2023-04-03T05:20:29;7.18;;;1.52;;
30505;SDS011;17292;51.600;4.994;2023-04-03T05:22:55;6.50;;;1.35;;
30505;SDS011;17292;51.600;4.994;2023-04-03T05:25:22;2.78;;;1.30;;
30505;SDS011;17292;51.600;4.994;2023-04-03T05:27:48;5.47;;;1.63;;
30505;SDS011;17292;51.600;4.994;2023-04-03T05:30:14;10.82;;;1.70;;
30505;SDS011;17292;51.600;4.994;2023-04-03T05:32:40;8.43;;;1.50;;
30505;SDS011;17292;51.600;4.994;2023-04-03T05:35:07;3.38;;;1.23;;
30505;SDS011;17292;51.600;4.994;2023-04-03T05:37:35;7.57;;;1.48;;
30505;SDS011;17292;51.600;4.994;2023-04-03T05:40:02;9.68;;;1.42;;
30505;SDS011;17292;51.600;4.994;2023-04-03T05:42:28;26.50;;;3.13;;
30505;SDS011;17292;51.600;4.994;2023-04-03T05:44:55;5.00;;;1.63;;
30505;SDS011;17292;51.600;4.994;2023-04-03T05:47:21;14.57;;;2.50;;
30505;SDS011;17292;51.600;4.994;2023-04-03T05:49:47;25.23;;;3.00;;
30505;SDS011;17292;51.600;4.994;2023-04-03T05:52:18;29.30;;;2.90;;
30505;SDS011;17292;51.600;4.994;2023-04-03T05:54:46;20.90;;;2.92;;
30505;SDS011;17292;51.600;4.994;2023-04-03T05:57:13;11.55;;;1.80;;
30505;SDS011;17292;51.600;4.994;2023-04-03T05:59:41;21.45;;;2.60;;
30505;SDS011;17292;51.600;4.994;2023-04-03T06:02:08;54.95;;;5.15;;
30505;SDS011;17292;51.600;4.994;2023-04-03T06:04:35;29.05;;;2.63;;
30505;SDS011;17292;51.600;4.994;2023-04-03T06:07:01;10.30;;;1.83;;
30505;SDS011;17292;51.600;4.994;2023-04-03T06:09:27;24.25;;;3.70;;
30505;SDS011;17292;51.600;4.994;2023-04-03T06:11:54;15.50;;;3.13;;
30505;SDS011;17292;51.600;4.994;2023-04-03T06:14:21;11.25;;;2.15;;
30505;SDS011;17292;51.600;4.994;2023-04-03T06:16:47;14.63;;;2.10;;
30505;SDS011;17292;51.600;4.994;2023-04-03T06:19:13;15.45;;;1.92;;
30505;SDS011;17292;51.600;4.994;2023-04-03T06:21:39;9.30;;;1.77;;
30505;SDS011;17292;51.600;4.994;2023-04-03T06:24:05;13.40;;;1.60;;
30505;SDS011;17292;51.600;4.994;2023-04-03T06:26:32;11.38;;;2.30;;
30505;SDS011;17292;51.600;4.994;2023-04-03T06:28:59;8.40;;;1.70;;
30505;SDS011;17292;51.600;4.994;2023-04-03T06:31:25;10.23;;;2.08;;
30505;SDS011;17292;51.600;4.994;2023-04-03T06:33:51;17.17;;;2.63;;
30505;SDS011;17292;51.600;4.994;2023-04-03T06:36:18;21.95;;;3.30;;
30505;SDS011;17292;51.600;4.994;2023-04-03T06:38:45;19.67;;;3.33;;
30505;SDS011;17292;51.600;4.994;2023-04-03T06:41:12;27.52;;;3.35;;
30505;SDS011;17292;51.600;4.994;2023-04-03T06:43:38;26.55;;;3.15;;
30505;SDS011;17292;51.600;4.994;2023-04-03T06:46:04;22.90;;;2.78;;
30505;SDS011;17292;51.600;4.994;2023-04-03T06:48:30;26.40;;;2.70;;
30505;SDS011;17292;51.600;4.994;2023-04-03T06:50:57;24.30;;;3.63;;
30505;SDS011;17292;51.600;4.994;2023-04-03T06:53:23;11.55;;;2.30;;
30505;SDS011;17292;51.600;4.994;2023-04-03T06:55:50;15.25;;;2.80;;
30505;SDS011;17292;51.600;4.994;2023-04-03T06:58:16;14.50;;;2.30;;
30505;SDS011;17292;51.600;4.994;2023-04-03T07:00:42;16.60;;;2.47;;
30505;SDS011;17292;51.600;4.994;2023-04-03T07:03:09;10.50;;;1.73;;
30505;SDS011;17292;51.600;4.994;2023-04-03T07:05:35;9.60;;;1.95;;
30505;SDS011;17292;51.600;4.994;2023-04-03T07:08:01;7.97;;;1.90;;
30505;SDS011;17292;51.600;4.994;2023-04-03T07:10:27;12.93;;;2.13;;
30505;SDS011;17292;51.600;4.994;2023-04-03T07:12:54;9.48;;;1.92;;
30505;SDS011;17292;51.600;4.994;2023-04-03T07:15:20;12.07;;;2.17;;
30505;SDS011;17292;51.600;4.994;2023-04-03T07:17:46;14.45;;;2.33;;
30505;SDS011;17292;51.600;4.994;2023-04-03T07:20:13;12.10;;;1.65;;
30505;SDS011;17292;51.600;4.994;2023-04-03T07:22:40;13.07;;;1.92;;
30505;SDS011;17292;51.600;4.994;2023-04-03T07:25:06;9.00;;;2.20;;
30505;SDS011;17292;51.600;4.994;2023-04-03T07:27:33;8.80;;;2.20;;
30505;SDS011;17292;51.600;4.994;2023-04-03T07:29:59;12.23;;;2.55;;
30505;SDS011;17292;51.600;4.994;2023-04-03T07:32:25;12.23;;;2.00;;
30505;SDS011;17292;51.600;4.994;2023-04-03T07:34:51;8.52;;;2.53;;
30505;SDS011;17292;51.600;4.994;2023-04-03T07:37:17;14.32;;;2.65;;
30505;SDS011;17292;51.600;4.994;2023-04-03T07:39:44;9.93;;;2.20;;
30505;SDS011;17292;51.600;4.994;2023-04-03T07:42:10;18.38;;;2.58;;
30505;SDS011;17292;51.600;4.994;2023-04-03T07:44:37;11.90;;;2.35;;
30505;SDS011;17292;51.600;4.994;2023-04-03T07:47:03;23.52;;;2.83;;
30505;SDS011;17292;51.600;4.994;2023-04-03T07:49:29;18.20;;;2.95;;
30505;SDS011;17292;51.600;4.994;2023-04-03T07:51:57;13.63;;;2.58;;
30505;SDS011;17292;51.600;4.994;2023-04-03T07:54:24;21.17;;;2.92;;
30505;SDS011;17292;51.600;4.994;2023-04-03T07:56:50;6.30;;;2.75;;
30505;SDS011;17292;51.600;4.994;2023-04-03T07:59:16;34.05;;;4.30;;
30505;SDS011;17292;51.600;4.994;2023-04-03T08:01:42;23.83;;;4.13;;
30505;SDS011;17292;51.600;4.994;2023-04-03T08:04:08;30.95;;;3.85;;
30505;SDS011;17292;51.600;4.994;2023-04-03T08:06:35;34.67;;;5.28;;
30505;SDS011;17292;51.600;4.994;2023-04-03T08:09:02;27.83;;;3.38;;
30505;SDS011;17292;51.600;4.994;2023-04-03T08:11:29;20.20;;;3.40;;
30505;SDS011;17292;51.600;4.994;2023-04-03T08:13:56;17.52;;;3.53;;
30505;SDS011;17292;51.600;4.994;2023-04-03T08:16:22;20.77;;;2.92;;
30505;SDS011;17292;51.600;4.994;2023-04-03T08:18:51;33.58;;;3.95;;
30505;SDS011;17292;51.600;4.994;2023-04-03T08:21:18;26.00;;;3.88;;
30505;SDS011;17292;51.600;4.994;2023-04-03T08:23:44;23.27;;;3.22;;
30505;SDS011;17292;51.600;4.994;2023-04-03T08:26:15;18.92;;;2.53;;
30505;SDS011;17292;51.600;4.994;2023-04-03T08:28:41;15.32;;;3.03;;
30505;SDS011;17292;51.600;4.994;2023-04-03T08:31:09;14.95;;;2.85;;
30505;SDS011;17292;51.600;4.994;2023-04-03T08:33:37;12.32;;;2.35;;
30505;SDS011;17292;51.600;4.994;2023-04-03T08:36:04;12.65;;;2.53;;
30505;SDS011;17292;51.600;4.994;2023-04-03T08:38:30;26.80;;;2.55;;
30505;SDS011;17292;51.600;4.994;2023-04-03T08:41:04;18.77;;;2.80;;
30505;SDS011;17292;51.600;4.994;2023-04-03T08:43:50;16.35;;;3.03;;
30505;SDS011;17292;51.600;4.994;2023-04-03T08:46:19;31.90;;;3.65;;
30505;SDS011;17292;51.600;4.994;2023-04-03T08:48:48;17.65;;;3.38;;
30505;SDS011;17292;51.600;4.994;2023-04-03T08:51:16;16.38;;;2.67;;
30505;SDS011;17292;51.600;4.994;2023-04-03T08:54:17;21.52;;;2.90;;
30505;SDS011;17292;51.600;4.994;2023-04-03T08:59:05;17.33;;;2.42;;
30505;SDS011;17292;51.600;4.994;2023-04-03T09:01:34;10.02;;;3.05;;
30505;SDS011;17292;51.600;4.994;2023-04-03T09:04:01;13.55;;;3.00;;
30505;SDS011;17292;51.600;4.994;2023-04-03T09:06:31;20.13;;;3.30;;
30505;SDS011;17292;51.600;4.994;2023-04-03T09:11:45;26.27;;;3.30;;
30505;SDS011;17292;51.600;4.994;2023-04-03T09:16:58;21.90;;;3.15;;
30505;SDS011;17292;51.600;4.994;2023-04-03T09:21:51;15.18;;;3.17;;
30505;SDS011;17292;51.600;4.994;2023-04-03T09:24:17;29.23;;;3.50;;
30505;SDS011;17292;51.600;4.994;2023-04-03T09:29:12;22.00;;;3.03;;
30505;SDS011;17292;51.600;4.994;2023-04-03T09:31:42;12.80;;;2.88;;
30505;SDS011;17292;51.600;4.994;2023-04-03T09:34:12;20.42;;;3.25;;
30505;SDS011;17292;51.600;4.994;2023-04-03T09:36:46;19.35;;;3.65;;
30505;SDS011;17292;51.600;4.994;2023-04-03T09:39:17;17.65;;;3.22;;
30505;SDS011;17292;51.600;4.994;2023-04-03T09:44:23;15.00;;;3.10;;
30505;SDS011;17292;51.600;4.994;2023-04-03T09:46:50;13.70;;;3.30;;
30505;SDS011;17292;51.600;4.994;2023-04-03T09:49:16;10.75;;;3.05;;
30505;SDS011;17292;51.600;4.994;2023-04-03T09:51:43;15.00;;;3.03;;
30505;SDS011;17292;51.600;4.994;2023-04-03T09:56:55;16.80;;;3.22;;
30505;SDS011;17292;51.600;4.994;2023-04-03T09:59:22;14.80;;;2.88;;
30505;SDS011;17292;51.600;4.994;2023-04-03T10:01:59;14.13;;;3.40;;
30505;SDS011;17292;51.600;4.994;2023-04-03T10:04:26;18.45;;;3.38;;
30505;SDS011;17292;51.600;4.994;2023-04-03T10:07:02;13.10;;;3.20;;
30505;SDS011;17292;51.600;4.994;2023-04-03T10:09:29;13.38;;;2.75;;
30505;SDS011;17292;51.600;4.994;2023-04-03T10:14:30;19.55;;;4.03;;
30505;SDS011;17292;51.600;4.994;2023-04-03T10:22:00;20.25;;;3.10;;
30505;SDS011;17292;51.600;4.994;2023-04-03T10:25:03;17.38;;;3.15;;
30505;SDS011;17292;51.600;4.994;2023-04-03T10:43:06;18.33;;;3.20;;
30505;SDS011;17292;51.600;4.994;2023-04-03T10:45:51;14.18;;;3.58;;
30505;SDS011;17292;51.600;4.994;2023-04-03T10:53:28;27.33;;;4.30;;
30505;SDS011;17292;51.600;4.994;2023-04-03T10:58:26;17.90;;;3.08;;
30505;SDS011;17292;51.600;4.994;2023-04-03T11:00:54;18.88;;;3.28;;
30505;SDS011;17292;51.600;4.994;2023-04-03T11:03:28;17.75;;;3.28;;
30505;SDS011;17292;51.600;4.994;2023-04-03T11:05:56;16.30;;;3.05;;
30505;SDS011;17292;51.600;4.994;2023-04-03T11:11:09;21.92;;;3.97;;
30505;SDS011;17292;51.600;4.994;2023-04-03T11:16:03;14.27;;;3.70;;
30505;SDS011;17292;51.600;4.994;2023-04-03T11:18:41;18.75;;;3.42;;
30505;SDS011;17292;51.600;4.994;2023-04-03T11:21:15;21.17;;;3.33;;
30505;SDS011;17292;51.600;4.994;2023-04-03T11:23:44;14.75;;;3.22;;
30505;SDS011;17292;51.600;4.994;2023-04-03T11:26:12;16.58;;;3.00;;
30505;SDS011;17292;51.600;4.994;2023-04-03T11:28:39;17.48;;;4.10;;
30505;SDS011;17292;51.600;4.994;2023-04-03T11:33:47;22.27;;;3.60;;
30505;SDS011;17292;51.600;4.994;2023-04-03T11:38:51;17.50;;;2.95;;
30505;SDS011;17292;51.600;4.994;2023-04-03T11:41:23;19.10;;;3.60;;
30505;SDS011;17292;51.600;4.994;2023-04-03T11:44:00;15.10;;;3.30;;
30505;SDS011;17292;51.600;4.994;2023-04-03T11:51:56;16.02;;;3.35;;
30505;SDS011;17292;51.600;4.994;2023-04-03T11:54:36;28.10;;;4.10;;
30505;SDS011;17292;51.600;4.994;2023-04-03T11:59:53;20.92;;;3.78;;
30505;SDS011;17292;51.600;4.994;2023-04-03T12:02:35;21.38;;;3.15;;
30505;SDS011;17292;51.600;4.994;2023-04-03T12:08:15;15.85;;;3.55;;
30505;SDS011;17292;51.600;4.994;2023-04-03T12:10:33;17.00;;;3.17;;
30505;SDS011;17292;51.600;4.994;2023-04-03T12:13:00;14.02;;;3.65;;
30505;SDS011;17292;51.600;4.994;2023-04-03T12:15:44;16.48;;;3.22;;
30505;SDS011;17292;51.600;4.994;2023-04-03T12:20:58;16.83;;;3.78;;
30505;SDS011;17292;51.600;4.994;2023-04-03T12:23:28;16.00;;;3.40;;
30505;SDS011;17292;51.600;4.994;2023-04-03T12:26:05;23.35;;;3.85;;
30505;SDS011;17292;51.600;4.994;2023-04-03T12:28:44;14.15;;;3.72;;
30505;SDS011;17292;51.600;4.994;2023-04-03T12:31:11;25.23;;;3.78;;
30505;SDS011;17292;51.600;4.994;2023-04-03T12:33:44;19.33;;;3.75;;
30505;SDS011;17292;51.600;4.994;2023-04-03T12:36:26;18.40;;;4.38;;
30505;SDS011;17292;51.600;4.994;2023-04-03T12:41:58;23.45;;;4.30;;
30505;SDS011;17292;51.600;4.994;2023-04-03T12:45:30;25.60;;;4.05;;
30505;SDS011;17292;51.600;4.994;2023-04-03T12:47:35;35.22;;;4.30;;
30505;SDS011;17292;51.600;4.994;2023-04-03T12:50:04;29.67;;;4.18;;
30505;SDS011;17292;51.600;4.994;2023-04-03T12:52:37;25.45;;;3.85;;
30505;SDS011;17292;51.600;4.994;2023-04-03T12:55:18;30.73;;;4.93;;
30505;SDS011;17292;51.600;4.994;2023-04-03T12:57:45;40.25;;;4.15;;
30505;SDS011;17292;51.600;4.994;2023-04-03T13:00:22;24.67;;;4.22;;
30505;SDS011;17292;51.600;4.994;2023-04-03T13:02:48;42.10;;;4.93;;
30505;SDS011;17292;51.600;4.994;2023-04-03T13:05:16;26.98;;;4.07;;
30505;SDS011;17292;51.600;4.994;2023-04-03T13:07:43;24.73;;;4.32;;
30505;SDS011;17292;51.600;4.994;2023-04-03T13:12:45;21.05;;;3.95;;
30505;SDS011;17292;51.600;4.994;2023-04-03T13:15:13;21.63;;;3.75;;
30505;SDS011;17292;51.600;4.994;2023-04-03T13:17:40;21.15;;;3.80;;
30505;SDS011;17292;51.600;4.994;2023-04-03T13:20:15;27.95;;;5.10;;
30505;SDS011;17292;51.600;4.994;2023-04-03T13:22:47;21.00;;;4.28;;
30505;SDS011;17292;51.600;4.994;2023-04-03T13:25:14;22.98;;;3.88;;
30505;SDS011;17292;51.600;4.994;2023-04-03T13:27:40;20.25;;;3.25;;
30505;SDS011;17292;51.600;4.994;2023-04-03T13:30:31;24.80;;;4.63;;
30505;SDS011;17292;51.600;4.994;2023-04-03T13:32:58;23.33;;;3.90;;
30505;SDS011;17292;51.600;4.994;2023-04-03T13:37:55;39.22;;;4.28;;
30505;SDS011;17292;51.600;4.994;2023-04-03T13:40:21;26.73;;;4.28;;
30505;SDS011;17292;51.600;4.994;2023-04-03T13:42:58;26.10;;;4.65;;
30505;SDS011;17292;51.600;4.994;2023-04-03T13:45:25;24.23;;;3.95;;
30505;SDS011;17292;51.600;4.994;2023-04-03T13:47:54;28.77;;;5.20;;
30505;SDS011;17292;51.600;4.994;2023-04-03T13:50:32;26.52;;;4.40;;
30505;SDS011;17292;51.600;4.994;2023-04-03T13:53:03;24.10;;;4.45;;
30505;SDS011;17292;51.600;4.994;2023-04-03T13:55:30;19.45;;;4.57;;
30505;SDS011;17292;51.600;4.994;2023-04-03T13:58:18;18.70;;;3.50;;
30505;SDS011;17292;51.600;4.994;2023-04-03T14:03:51;24.15;;;3.92;;
30505;SDS011;17292;51.600;4.994;2023-04-03T14:06:08;25.60;;;3.80;;
30505;SDS011;17292;51.600;4.994;2023-04-03T14:08:35;19.05;;;4.15;;
30505;SDS011;17292;51.600;4.994;2023-04-03T14:11:02;18.63;;;3.58;;
30505;SDS011;17292;51.600;4.994;2023-04-03T14:13:31;26.23;;;4.22;;
30505;SDS011;17292;51.600;4.994;2023-04-03T14:15:57;32.28;;;4.57;;
30505;SDS011;17292;51.600;4.994;2023-04-03T14:18:24;32.63;;;3.58;;
30505;SDS011;17292;51.600;4.994;2023-04-03T14:20:50;22.38;;;3.08;;
30505;SDS011;17292;51.600;4.994;2023-04-03T14:23:16;13.27;;;3.55;;
30505;SDS011;17292;51.600;4.994;2023-04-03T14:25:43;18.45;;;3.45;;
30505;SDS011;17292;51.600;4.994;2023-04-03T14:28:14;15.25;;;2.80;;
30505;SDS011;17292;51.600;4.994;2023-04-03T14:30:40;21.05;;;4.30;;
30505;SDS011;17292;51.600;4.994;2023-04-03T14:33:09;14.13;;;3.45;;
30505;SDS011;17292;51.600;4.994;2023-04-03T14:35:36;20.50;;;4.10;;
30505;SDS011;17292;51.600;4.994;2023-04-03T14:38:02;14.63;;;3.47;;
30505;SDS011;17292;51.600;4.994;2023-04-03T14:40:31;21.20;;;3.63;;
30505;SDS011;17292;51.600;4.994;2023-04-03T14:42:57;17.05;;;3.40;;
30505;SDS011;17292;51.600;4.994;2023-04-03T14:45:24;15.35;;;3.60;;
30505;SDS011;17292;51.600;4.994;2023-04-03T14:47:52;16.10;;;3.53;;
30505;SDS011;17292;51.600;4.994;2023-04-03T14:50:20;16.15;;;3.70;;
30505;SDS011;17292;51.600;4.994;2023-04-03T14:52:47;19.88;;;3.70;;
30505;SDS011;17292;51.600;4.994;2023-04-03T14:55:16;19.58;;;3.30;;
30505;SDS011;17292;51.600;4.994;2023-04-03T14:57:42;19.08;;;3.35;;
30505;SDS011;17292;51.600;4.994;2023-04-03T15:00:16;18.73;;;3.72;;
30505;SDS011;17292;51.600;4.994;2023-04-03T15:02:42;15.52;;;3.22;;
30505;SDS011;17292;51.600;4.994;2023-04-03T15:05:09;17.58;;;3.25;;
30505;SDS011;17292;51.600;4.994;2023-04-03T15:07:36;11.18;;;3.38;;
30505;SDS011;17292;51.600;4.994;2023-04-03T15:12:45;11.87;;;3.10;;
30505;SDS011;17292;51.600;4.994;2023-04-03T15:15:12;12.15;;;3.35;;
30505;SDS011;17292;51.600;4.994;2023-04-03T15:17:38;18.00;;;3.80;;
30505;SDS011;17292;51.600;4.994;2023-04-03T15:20:15;13.52;;;3.25;;
30505;SDS011;17292;51.600;4.994;2023-04-03T15:22:41;11.98;;;3.13;;
30505;SDS011;17292;51.600;4.994;2023-04-03T15:25:08;15.13;;;3.50;;
30505;SDS011;17292;51.600;4.994;2023-04-03T15:27:34;18.13;;;3.47;;
30505;SDS011;17292;51.600;4.994;2023-04-03T15:30:01;12.13;;;3.40;;
30505;SDS011;17292;51.600;4.994;2023-04-03T15:32:27;14.38;;;2.90;;
30505;SDS011;17292;51.600;4.994;2023-04-03T15:34:53;14.48;;;2.97;;
30505;SDS011;17292;51.600;4.994;2023-04-03T15:37:19;14.55;;;3.08;;
30505;SDS011;17292;51.600;4.994;2023-04-03T15:39:46;8.55;;;3.03;;
30505;SDS011;17292;51.600;4.994;2023-04-03T15:42:12;12.63;;;3.15;;
30505;SDS011;17292;51.600;4.994;2023-04-03T15:44:38;8.60;;;2.70;;
30505;SDS011;17292;51.600;4.994;2023-04-03T15:47:04;12.45;;;3.22;;
30505;SDS011;17292;51.600;4.994;2023-04-03T15:49:32;12.02;;;3.05;;
30505;SDS011;17292;51.600;4.994;2023-04-03T15:51:59;12.73;;;3.28;;
30505;SDS011;17292;51.600;4.994;2023-04-03T15:54:25;12.32;;;3.17;;
30505;SDS011;17292;51.600;4.994;2023-04-03T15:56:52;7.82;;;3.00;;
30505;SDS011;17292;51.600;4.994;2023-04-03T15:59:18;10.98;;;2.58;;
30505;SDS011;17292;51.600;4.994;2023-04-03T16:01:44;7.80;;;3.17;;
30505;SDS011;17292;51.600;4.994;2023-04-03T16:04:11;7.85;;;2.50;;
30505;SDS011;17292;51.600;4.994;2023-04-03T16:06:37;6.40;;;2.67;;
30505;SDS011;17292;51.600;4.994;2023-04-03T16:09:04;8.93;;;2.28;;
30505;SDS011;17292;51.600;4.994;2023-04-03T16:11:30;12.18;;;3.13;;
30505;SDS011;17292;51.600;4.994;2023-04-03T16:13:57;10.70;;;2.95;;
30505;SDS011;17292;51.600;4.994;2023-04-03T16:16:23;13.48;;;2.75;;
30505;SDS011;17292;51.600;4.994;2023-04-03T16:18:53;10.27;;;2.65;;
30505;SDS011;17292;51.600;4.994;2023-04-03T16:21:19;11.23;;;2.60;;
30505;SDS011;17292;51.600;4.994;2023-04-03T16:23:45;13.20;;;3.17;;